sensor_id;sensor_type;location;lat;lon;timestamp;pressure;altitude;pressure_sealevel;temperature;humidity
37298;BME280;30517;51.932;4.278;2023-04-08T00:01:53;102310.88;;;11.40;63.75
37298;BME280;30517;51.932;4.278;2023-04-08T00:04:34;102364.22;;;11.67;63.22
37298;BME280;30517;51.932;4.278;2023-04-08T00:07:14;102358.91;;;11.67;63.69
37298;BME280;30517;51.932;4.278;2023-04-08T00:09:55;102350.84;;;11.60;63.80
37298;BME280;30517;51.932;4.278;2023-04-08T00:12:36;102320.66;;;11.45;63.22
37298;BME280;30517;51.932;4.278;2023-04-08T00:15:17;102349.09;;;11.59;63.41
37298;BME280;30517;51.932;4.278;2023-04-08T00:17:58;102332.22;;;11.50;63.41
37298;BME280;30517;51.932;4.278;2023-04-08T00:20:38;102300.22;;;11.35;63.37
37298;BME280;30517;51.932;4.278;2023-04-08T00:23:19;102326.84;;;11.47;63.72
37298;BME280;30517;51.932;4.278;2023-04-08T00:26:00;102338.50;;;11.59;63.88
37298;BME280;30517;51.932;4.278;2023-04-08T00:28:41;102336.66;;;11.55;63.54
37298;BME280;30517;51.932;4.278;2023-04-08T00:31:24;102334.06;;;11.56;63.90
37298;BME280;30517;51.932;4.278;2023-04-08T00:34:05;102346.44;;;11.59;63.54
37298;BME280;30517;51.932;4.278;2023-04-08T00:36:46;102293.91;;;11.27;63.49
37298;BME280;30517;51.932;4.278;2023-04-08T00:39:26;102325.06;;;11.46;63.36
37298;BME280;30517;51.932;4.278;2023-04-08T00:42:07;102328.59;;;11.47;63.49
37298;BME280;30517;51.932;4.278;2023-04-08T00:44:48;102327.66;;;11.45;62.90
37298;BME280;30517;51.932;4.278;2023-04-08T00:47:30;102360.53;;;11.61;63.64
37298;BME280;30517;51.932;4.278;2023-04-08T00:50:11;102324.94;;;11.39;62.97
37298;BME280;30517;51.932;4.278;2023-04-08T00:52:51;102260.06;;;11.04;63.59
37298;BME280;30517;51.932;4.278;2023-04-08T00:55:32;102288.44;;;11.18;63.33
37298;BME280;30517;51.932;4.278;2023-04-08T00:58:14;102351.72;;;11.59;63.49
37298;BME280;30517;51.932;4.278;2023-04-08T01:01:02;102305.31;;;11.24;63.52
37298;BME280;30517;51.932;4.278;2023-04-08T01:03:57;102354.22;;;11.51;63.70
37298;BME280;30517;51.932;4.278;2023-04-08T01:07:13;102353.34;;;11.50;63.73
37298;BME280;30517;51.932;4.278;2023-04-08T01:09:59;102333.78;;;11.41;63.31
37298;BME280;30517;51.932;4.278;2023-04-08T01:12:56;102340.94;;;11.46;63.50
37298;BME280;30517;51.932;4.278;2023-04-08T01:15:38;102356.97;;;11.57;63.48
37298;BME280;30517;51.932;4.278;2023-04-08T01:18:21;102348.91;;;11.49;63.36
37298;BME280;30517;51.932;4.278;2023-04-08T01:21:04;102335.56;;;11.42;63.84
37298;BME280;30517;51.932;4.278;2023-04-08T01:24:07;102332.03;;;11.41;63.30
37298;BME280;30517;51.932;4.278;2023-04-08T01:26:51;102332.91;;;11.40;63.45
37298;BME280;30517;51.932;4.278;2023-04-08T01:29:33;102349.00;;;11.56;63.07
37298;BME280;30517;51.932;4.278;2023-04-08T01:32:15;102352.47;;;11.51;63.25
37298;BME280;30517;51.932;4.278;2023-04-08T01:34:57;102307.13;;;11.27;63.19
37298;BME280;30517;51.932;4.278;2023-04-08T01:37:39;102359.47;;;11.49;63.71
37298;BME280;30517;51.932;4.278;2023-04-08T01:40:20;102339.09;;;11.42;63.00
37298;BME280;30517;51.932;4.278;2023-04-08T01:43:02;102346.16;;;11.43;63.81
37298;BME280;30517;51.932;4.278;2023-04-08T01:45:45;102369.31;;;11.57;63.42
37298;BME280;30517;51.932;4.278;2023-04-08T01:48:27;102351.59;;;11.51;63.71
37298;BME280;30517;51.932;4.278;2023-04-08T01:51:08;102364.00;;;11.57;63.01
37298;BME280;30517;51.932;4.278;2023-04-08T01:53:49;102379.88;;;11.57;63.28
37298;BME280;30517;51.932;4.278;2023-04-08T01:56:32;102313.13;;;11.20;63.25
37298;BME280;30517;51.932;4.278;2023-04-08T01:59:17;102354.09;;;11.43;63.11
37298;BME280;30517;51.932;4.278;2023-04-08T02:02:02;102347.00;;;11.41;63.67
37298;BME280;30517;51.932;4.278;2023-04-08T02:04:45;102373.66;;;11.53;63.45
37298;BME280;30517;51.932;4.278;2023-04-08T02:07:26;102328.34;;;11.32;64.09
37298;BME280;30517;51.932;4.278;2023-04-08T02:10:07;102336.28;;;11.33;63.50
37298;BME280;30517;51.932;4.278;2023-04-08T02:12:48;102354.09;;;11.43;64.00
37298;BME280;30517;51.932;4.278;2023-04-08T02:15:33;102362.94;;;11.45;64.01
37298;BME280;30517;51.932;4.278;2023-04-08T02:18:16;102333.69;;;11.35;63.48
37298;BME280;30517;51.932;4.278;2023-04-08T02:21:10;102369.25;;;11.54;63.51
37298;BME280;30517;51.932;4.278;2023-04-08T02:23:53;102347.03;;;11.42;63.06
37298;BME280;30517;51.932;4.278;2023-04-08T02:26:35;102313.19;;;11.23;63.45
37298;BME280;30517;51.932;4.278;2023-04-08T02:29:18;102352.47;;;11.51;63.85
37298;BME280;30517;51.932;4.278;2023-04-08T02:32:01;102354.25;;;11.52;63.58
37298;BME280;30517;51.932;4.278;2023-04-08T02:34:43;102359.53;;;11.52;63.54
37298;BME280;30517;51.932;4.278;2023-04-08T02:37:25;102295.56;;;11.22;63.08
37298;BME280;30517;51.932;4.278;2023-04-08T02:43:02;102365.69;;;11.51;63.65
37298;BME280;30517;51.932;4.278;2023-04-08T02:45:43;102338.97;;;11.36;63.48
37298;BME280;30517;51.932;4.278;2023-04-08T02:48:25;102363.78;;;11.43;63.82
37298;BME280;30517;51.932;4.278;2023-04-08T02:51:05;102370.91;;;11.48;63.73
37298;BME280;30517;51.932;4.278;2023-04-08T02:53:47;102375.28;;;11.46;63.57
37298;BME280;30517;51.932;4.278;2023-04-08T02:56:28;102337.88;;;11.25;63.44
37298;BME280;30517;51.932;4.278;2023-04-08T02:59:09;102342.28;;;11.24;63.75
37298;BME280;30517;51.932;4.278;2023-04-08T03:01:49;102390.25;;;11.47;63.71
37298;BME280;30517;51.932;4.278;2023-04-08T03:04:30;102320.91;;;11.12;63.78
37298;BME280;30517;51.932;4.278;2023-04-08T03:07:11;102336.06;;;11.21;63.74
37298;BME280;30517;51.932;4.278;2023-04-08T03:09:55;102367.19;;;11.39;63.87
37298;BME280;30517;51.932;4.278;2023-04-08T03:12:35;102380.50;;;11.45;63.95
37298;BME280;30517;51.932;4.278;2023-04-08T03:15:16;102386.72;;;11.45;63.46
37298;BME280;30517;51.932;4.278;2023-04-08T03:17:57;102395.53;;;11.46;63.46
37298;BME280;30517;51.932;4.278;2023-04-08T03:20:38;102371.44;;;11.29;63.31
37298;BME280;30517;51.932;4.278;2023-04-08T03:23:19;102394.59;;;11.44;63.80
37298;BME280;30517;51.932;4.278;2023-04-08T03:26:00;102385.69;;;11.37;63.70
37298;BME280;30517;51.932;4.278;2023-04-08T03:28:40;102400.75;;;11.43;63.88
37298;BME280;30517;51.932;4.278;2023-04-08T03:31:21;102384.75;;;11.35;63.63
37298;BME280;30517;51.932;4.278;2023-04-08T03:34:02;102333.94;;;11.03;63.31
37298;BME280;30517;51.932;4.278;2023-04-08T03:36:43;102383.78;;;11.30;63.95
37298;BME280;30517;51.932;4.278;2023-04-08T03:39:24;102408.66;;;11.41;64.00
37298;BME280;30517;51.932;4.278;2023-04-08T03:42:05;102378.25;;;11.18;63.83
37298;BME280;30517;51.932;4.278;2023-04-08T03:44:46;102421.84;;;11.40;63.76
37298;BME280;30517;51.932;4.278;2023-04-08T03:47:26;102370.25;;;11.15;64.04
37298;BME280;30517;51.932;4.278;2023-04-08T03:50:07;102413.88;;;11.38;64.05
37298;BME280;30517;51.932;4.278;2023-04-08T03:52:48;102415.63;;;11.38;63.96
37298;BME280;30517;51.932;4.278;2023-04-08T03:55:29;102412.09;;;11.37;63.92
37298;BME280;30517;51.932;4.278;2023-04-08T03:58:10;102420.88;;;11.36;63.77
37298;BME280;30517;51.932;4.278;2023-04-08T04:00:51;102426.91;;;11.29;63.71
37298;BME280;30517;51.932;4.278;2023-04-08T04:03:32;102419.09;;;11.35;64.10
37298;BME280;30517;51.932;4.278;2023-04-08T04:06:13;102392.38;;;11.20;63.67
37298;BME280;30517;51.932;4.278;2023-04-08T04:08:56;102424.34;;;11.34;63.64
37298;BME280;30517;51.932;4.278;2023-04-08T04:11:37;102426.09;;;11.33;63.86
37298;BME280;30517;51.932;4.278;2023-04-08T04:14:17;102431.38;;;11.33;64.23
37298;BME280;30517;51.932;4.278;2023-04-08T04:16:58;102428.75;;;11.33;63.52
37298;BME280;30517;51.932;4.278;2023-04-08T04:19:39;102436.66;;;11.33;63.96
37298;BME280;30517;51.932;4.278;2023-04-08T04:22:20;102439.28;;;11.32;63.72
37298;BME280;30517;51.932;4.278;2023-04-08T04:25:04;102435.72;;;11.29;64.02
37298;BME280;30517;51.932;4.278;2023-04-08T04:27:45;102438.44;;;11.33;63.46
37298;BME280;30517;51.932;4.278;2023-04-08T04:30:25;102443.81;;;11.37;63.72
37298;BME280;30517;51.932;4.278;2023-04-08T04:33:06;102382.34;;;11.02;63.58
37298;BME280;30517;51.932;4.278;2023-04-08T04:35:48;102409.81;;;11.10;63.26
37298;BME280;30517;51.932;4.278;2023-04-08T04:38:29;102421.41;;;11.18;63.82
37298;BME280;30517;51.932;4.278;2023-04-08T04:41:10;102429.28;;;11.17;63.05
37298;BME280;30517;51.932;4.278;2023-04-08T04:43:52;102425.00;;;11.22;63.95
37298;BME280;30517;51.932;4.278;2023-04-08T04:46:32;102371.56;;;10.91;63.66
37298;BME280;30517;51.932;4.278;2023-04-08T04:49:13;102341.22;;;10.71;63.60
37298;BME280;30517;51.932;4.278;2023-04-08T04:51:56;102443.59;;;11.28;63.23
37298;BME280;30517;51.932;4.278;2023-04-08T04:54:37;102422.25;;;11.16;63.88
37298;BME280;30517;51.932;4.278;2023-04-08T04:57:18;102405.31;;;11.06;63.56
37298;BME280;30517;51.932;4.278;2023-04-08T04:59:59;102403.50;;;11.03;63.63
37298;BME280;30517;51.932;4.278;2023-04-08T05:02:40;102430.00;;;11.10;63.76
37298;BME280;30517;51.932;4.278;2023-04-08T05:05:20;102398.88;;;10.93;63.50
37298;BME280;30517;51.932;4.278;2023-04-08T05:08:01;102447.81;;;11.18;63.96
37298;BME280;30517;51.932;4.278;2023-04-08T05:10:42;102414.91;;;11.02;64.01
37298;BME280;30517;51.932;4.278;2023-04-08T05:13:23;102427.47;;;11.13;63.51
37298;BME280;30517;51.932;4.278;2023-04-08T05:16:05;102440.56;;;11.10;64.48
37298;BME280;30517;51.932;4.278;2023-04-08T05:18:46;102429.13;;;11.07;63.63
37298;BME280;30517;51.932;4.278;2023-04-08T05:21:27;102450.31;;;11.12;63.42
37298;BME280;30517;51.932;4.278;2023-04-08T05:24:08;102468.13;;;11.21;63.79
37298;BME280;30517;51.932;4.278;2023-04-08T05:26:48;102451.13;;;11.10;63.13
37298;BME280;30517;51.932;4.278;2023-04-08T05:29:32;102474.25;;;11.20;63.99
37298;BME280;30517;51.932;4.278;2023-04-08T05:32:13;102449.38;;;11.08;64.17
37298;BME280;30517;51.932;4.278;2023-04-08T05:34:56;102476.06;;;11.21;63.87
37298;BME280;30517;51.932;4.278;2023-04-08T05:37:36;102476.91;;;11.20;63.93
37298;BME280;30517;51.932;4.278;2023-04-08T05:40:17;102472.38;;;11.13;63.53
37298;BME280;30517;51.932;4.278;2023-04-08T05:42:58;102493.63;;;11.19;63.46
37298;BME280;30517;51.932;4.278;2023-04-08T05:45:39;102483.81;;;11.15;63.36
37298;BME280;30517;51.932;4.278;2023-04-08T05:48:20;102498.91;;;11.20;63.70
37298;BME280;30517;51.932;4.278;2023-04-08T05:51:01;102504.19;;;11.20;63.04
37298;BME280;30517;51.932;4.278;2023-04-08T05:53:44;102466.84;;;11.02;63.21
37298;BME280;30517;51.932;4.278;2023-04-08T05:56:26;102511.22;;;11.18;62.91
37298;BME280;30517;51.932;4.278;2023-04-08T05:59:07;102496.03;;;11.10;63.46
37298;BME280;30517;51.932;4.278;2023-04-08T06:01:47;102511.97;;;11.13;62.97
37298;BME280;30517;51.932;4.278;2023-04-08T06:04:28;102494.97;;;11.01;63.11
37298;BME280;30517;51.932;4.278;2023-04-08T06:07:09;102497.63;;;11.01;63.73
37298;BME280;30517;51.932;4.278;2023-04-08T06:09:50;102486.78;;;10.89;63.42
37298;BME280;30517;51.932;4.278;2023-04-08T06:12:34;102518.03;;;11.08;63.73
37298;BME280;30517;51.932;4.278;2023-04-08T06:15:15;102518.84;;;11.06;63.61
37298;BME280;30517;51.932;4.278;2023-04-08T06:17:56;102533.75;;;11.04;64.11
37298;BME280;30517;51.932;4.278;2023-04-08T06:20:37;102530.28;;;11.05;63.77
37298;BME280;30517;51.932;4.278;2023-04-08T06:23:18;102530.28;;;11.05;63.48
37298;BME280;30517;51.932;4.278;2023-04-08T06:25:59;102482.03;;;10.74;63.92
37298;BME280;30517;51.932;4.278;2023-04-08T06:28:39;102537.31;;;11.04;63.72
37298;BME280;30517;51.932;4.278;2023-04-08T06:31:20;102541.72;;;11.05;64.22
37298;BME280;30517;51.932;4.278;2023-04-08T06:34:01;102515.78;;;10.88;63.80
37298;BME280;30517;51.932;4.278;2023-04-08T06:36:42;102550.41;;;11.01;63.93
37298;BME280;30517;51.932;4.278;2023-04-08T06:39:23;102510.13;;;10.71;64.22
37298;BME280;30517;51.932;4.278;2023-04-08T06:42:04;102547.63;;;10.94;64.16
37298;BME280;30517;51.932;4.278;2023-04-08T06:44:45;102564.50;;;11.00;63.87
37298;BME280;30517;51.932;4.278;2023-04-08T06:47:26;102556.63;;;11.03;63.91
37298;BME280;30517;51.932;4.278;2023-04-08T06:50:07;102550.41;;;11.00;63.63
37298;BME280;30517;51.932;4.278;2023-04-08T06:52:48;102569.84;;;11.03;63.98
37298;BME280;30517;51.932;4.278;2023-04-08T06:55:29;102544.75;;;10.83;64.02
37298;BME280;30517;51.932;4.278;2023-04-08T06:58:09;102532.38;;;10.82;64.14
37298;BME280;30517;51.932;4.278;2023-04-08T07:00:52;102541.19;;;10.82;64.08
37298;BME280;30517;51.932;4.278;2023-04-08T07:03:34;102557.22;;;10.90;63.84
37298;BME280;30517;51.932;4.278;2023-04-08T07:06:16;102578.56;;;10.99;64.19
37298;BME280;30517;51.932;4.278;2023-04-08T07:08:56;102575.06;;;11.00;64.24
37298;BME280;30517;51.932;4.278;2023-04-08T07:11:37;102583.84;;;10.99;64.16
37298;BME280;30517;51.932;4.278;2023-04-08T07:14:18;102587.31;;;10.98;64.47
37298;BME280;30517;51.932;4.278;2023-04-08T07:16:59;102553.34;;;10.76;64.26
37298;BME280;30517;51.932;4.278;2023-04-08T07:19:40;102561.41;;;10.82;64.27
37298;BME280;30517;51.932;4.278;2023-04-08T07:22:21;102585.56;;;10.97;64.39
37298;BME280;30517;51.932;4.278;2023-04-08T07:25:02;102597.00;;;10.98;64.14
37298;BME280;30517;51.932;4.278;2023-04-08T07:27:43;102604.97;;;10.99;64.23
37298;BME280;30517;51.932;4.278;2023-04-08T07:30:24;102572.91;;;10.84;64.20
37298;BME280;30517;51.932;4.278;2023-04-08T07:33:05;102587.25;;;10.95;63.74
37298;BME280;30517;51.932;4.278;2023-04-08T07:35:46;102609.47;;;11.03;63.97
37298;BME280;30517;51.932;4.278;2023-04-08T07:38:27;102595.22;;;10.97;64.13
37298;BME280;30517;51.932;4.278;2023-04-08T07:41:08;102612.16;;;11.05;64.41
37298;BME280;30517;51.932;4.278;2023-04-08T07:43:49;102575.69;;;10.90;64.02
37298;BME280;30517;51.932;4.278;2023-04-08T07:46:30;102587.31;;;10.98;64.16
37298;BME280;30517;51.932;4.278;2023-04-08T07:49:11;102613.16;;;11.10;63.76
37298;BME280;30517;51.932;4.278;2023-04-08T07:51:55;102593.47;;;10.97;64.22
37298;BME280;30517;51.932;4.278;2023-04-08T07:54:36;102596.19;;;11.00;64.38
37298;BME280;30517;51.932;4.278;2023-04-08T07:57:17;102612.22;;;11.10;64.48
37298;BME280;30517;51.932;4.278;2023-04-08T07:59:58;102587.31;;;10.98;63.82
37298;BME280;30517;51.932;4.278;2023-04-08T08:02:38;102600.66;;;11.03;63.98
37298;BME280;30517;51.932;4.278;2023-04-08T08:05:19;102627.44;;;11.20;63.88
37298;BME280;30517;51.932;4.278;2023-04-08T08:08:00;102618.53;;;11.15;63.93
37298;BME280;30517;51.932;4.278;2023-04-08T08:10:41;102598.81;;;11.00;63.93
37298;BME280;30517;51.932;4.278;2023-04-08T08:13:22;102632.78;;;11.23;63.69
37298;BME280;30517;51.932;4.278;2023-04-08T08:16:06;102630.97;;;11.20;63.78
37298;BME280;30517;51.932;4.278;2023-04-08T08:18:50;102624.75;;;11.17;63.83
37298;BME280;30517;51.932;4.278;2023-04-08T08:21:31;102619.34;;;11.12;63.74
37298;BME280;30517;51.932;4.278;2023-04-08T08:24:11;102498.09;;;10.47;64.21
37298;BME280;30517;51.932;4.278;2023-04-08T08:26:52;102635.50;;;11.26;63.70
37298;BME280;30517;51.932;4.278;2023-04-08T08:29:34;102596.19;;;11.00;63.73
37298;BME280;30517;51.932;4.278;2023-04-08T08:32:16;102635.59;;;11.29;63.59
37298;BME280;30517;51.932;4.278;2023-04-08T08:34:57;102612.41;;;11.16;64.09
37298;BME280;30517;51.932;4.278;2023-04-08T08:37:37;102643.56;;;11.30;63.70
37298;BME280;30517;51.932;4.278;2023-04-08T08:40:18;102616.81;;;11.17;64.05
37298;BME280;30517;51.932;4.278;2023-04-08T08:42:59;102640.97;;;11.34;63.88
37298;BME280;30517;51.932;4.278;2023-04-08T08:45:41;102639.28;;;11.36;63.84
37298;BME280;30517;51.932;4.278;2023-04-08T08:48:22;102642.84;;;11.38;64.08
37298;BME280;30517;51.932;4.278;2023-04-08T08:51:10;102660.47;;;11.39;64.10
37298;BME280;30517;51.932;4.278;2023-04-08T08:53:51;102633.97;;;11.34;63.75
37298;BME280;30517;51.932;4.278;2023-04-08T08:56:32;102640.22;;;11.38;63.67
37298;BME280;30517;51.932;4.278;2023-04-08T08:59:13;102608.06;;;11.19;63.76
37298;BME280;30517;51.932;4.278;2023-04-08T09:01:54;102642.97;;;11.42;63.69
37298;BME280;30517;51.932;4.278;2023-04-08T09:04:35;102620.53;;;11.25;63.92
37298;BME280;30517;51.932;4.278;2023-04-08T09:07:15;102641.03;;;11.35;63.55
37298;BME280;30517;51.932;4.278;2023-04-08T09:09:58;102644.66;;;11.40;63.91
37298;BME280;30517;51.932;4.278;2023-04-08T09:12:54;102652.69;;;11.45;64.12
37298;BME280;30517;51.932;4.278;2023-04-08T09:15:35;102639.53;;;11.46;64.00
37298;BME280;30517;51.932;4.278;2023-04-08T09:18:22;102632.28;;;11.39;63.82
37298;BME280;30517;51.932;4.278;2023-04-08T09:21:04;102639.47;;;11.45;64.37
37298;BME280;30517;51.932;4.278;2023-04-08T09:23:46;102652.03;;;11.54;64.29
37298;BME280;30517;51.932;4.278;2023-04-08T09:26:27;102650.22;;;11.52;63.96
37298;BME280;30517;51.932;4.278;2023-04-08T09:29:08;102635.00;;;11.41;64.25
37298;BME280;30517;51.932;4.278;2023-04-08T09:31:57;102623.31;;;11.31;64.32
37298;BME280;30517;51.932;4.278;2023-04-08T09:34:38;102659.97;;;11.55;64.35
37298;BME280;30517;51.932;4.278;2023-04-08T09:37:20;102611.97;;;11.35;64.18
37298;BME280;30517;51.932;4.278;2023-04-08T09:40:01;102641.44;;;11.54;64.26
37298;BME280;30517;51.932;4.278;2023-04-08T09:42:44;102625.44;;;11.47;64.19
37298;BME280;30517;51.932;4.278;2023-04-08T09:45:27;102647.88;;;11.65;64.06
37298;BME280;30517;51.932;4.278;2023-04-08T09:48:11;102617.59;;;11.50;64.01
37298;BME280;30517;51.932;4.278;2023-04-08T09:50:52;102648.94;;;11.74;63.64
37298;BME280;30517;51.932;4.278;2023-04-08T09:53:37;102654.38;;;11.81;64.01
37298;BME280;30517;51.932;4.278;2023-04-08T09:56:21;102666.72;;;11.82;63.87
37298;BME280;30517;51.932;4.278;2023-04-08T09:59:16;102606.28;;;11.58;63.97
37298;BME280;30517;51.932;4.278;2023-04-08T10:02:00;102658.94;;;11.88;63.59
37298;BME280;30517;51.932;4.278;2023-04-08T10:04:47;102650.19;;;11.89;63.96
37298;BME280;30517;51.932;4.278;2023-04-08T10:07:30;102634.13;;;11.81;63.90
37298;BME280;30517;51.932;4.278;2023-04-08T10:10:11;102613.75;;;11.77;63.81
37298;BME280;30517;51.932;4.278;2023-04-08T10:12:52;102643.31;;;11.97;63.39
37298;BME280;30517;51.932;4.278;2023-04-08T10:15:34;102643.31;;;11.99;63.77
37298;BME280;30517;51.932;4.278;2023-04-08T10:21:01;102641.66;;;12.04;63.38
37298;BME280;30517;51.932;4.278;2023-04-08T10:23:53;102650.47;;;12.04;63.80
37298;BME280;30517;51.932;4.278;2023-04-08T10:26:43;102580.31;;;11.38;63.44
37298;BME280;30517;51.932;4.278;2023-04-08T10:32:07;102649.69;;;12.08;63.82
37298;BME280;30517;51.932;4.278;2023-04-08T10:34:52;102590.06;;;11.82;63.22
37298;BME280;30517;51.932;4.278;2023-04-08T10:37:33;102614.31;;;12.02;63.76
37298;BME280;30517;51.932;4.278;2023-04-08T10:40:19;102615.09;;;11.98;63.72
37298;BME280;30517;51.932;4.278;2023-04-08T10:43:00;102623.19;;;12.07;63.53
37298;BME280;30517;51.932;4.278;2023-04-08T10:45:42;102629.47;;;12.12;63.85
37298;BME280;30517;51.932;4.278;2023-04-08T10:48:24;102641.03;;;12.17;63.43
37298;BME280;30517;51.932;4.278;2023-04-08T10:51:05;102636.63;;;12.16;63.61
37298;BME280;30517;51.932;4.278;2023-04-08T10:53:46;102639.31;;;12.19;63.80
37298;BME280;30517;51.932;4.278;2023-04-08T10:56:27;102652.72;;;12.27;63.78
37298;BME280;30517;51.932;4.278;2023-04-08T10:59:09;102651.91;;;12.31;63.48
37298;BME280;30517;51.932;4.278;2023-04-08T11:01:50;102649.31;;;12.34;63.29
37298;BME280;30517;51.932;4.278;2023-04-08T11:04:31;102601.19;;;12.08;63.44
37298;BME280;30517;51.932;4.278;2023-04-08T11:07:15;102644.09;;;12.37;63.25
37298;BME280;30517;51.932;4.278;2023-04-08T11:09:56;102629.84;;;12.29;63.46
37298;BME280;30517;51.932;4.278;2023-04-08T11:12:37;102627.25;;;12.32;63.22
37298;BME280;30517;51.932;4.278;2023-04-08T11:15:18;102646.84;;;12.43;63.60
37298;BME280;30517;51.932;4.278;2023-04-08T11:17:59;102641.56;;;12.45;63.73
37298;BME280;30517;51.932;4.278;2023-04-08T11:20:43;102642.53;;;12.48;63.74
37298;BME280;30517;51.932;4.278;2023-04-08T11:23:24;102609.66;;;12.35;63.52
37298;BME280;30517;51.932;4.278;2023-04-08T11:26:05;102639.13;;;12.55;63.35
37298;BME280;30517;51.932;4.278;2023-04-08T11:28:46;102646.25;;;12.59;63.23
37298;BME280;30517;51.932;4.278;2023-04-08T11:31:31;102649.84;;;12.63;63.42
37298;BME280;30517;51.932;4.278;2023-04-08T11:34:21;102649.91;;;12.66;63.08
37298;BME280;30517;51.932;4.278;2023-04-08T11:37:01;102650.88;;;12.71;63.23
37298;BME280;30517;51.932;4.278;2023-04-08T11:39:43;102643.03;;;12.76;63.22
37298;BME280;30517;51.932;4.278;2023-04-08T11:42:27;102622.63;;;12.70;63.41
37298;BME280;30517;51.932;4.278;2023-04-08T11:45:14;102638.72;;;12.82;63.07
37298;BME280;30517;51.932;4.278;2023-04-08T11:47:58;102641.44;;;12.86;62.62
37298;BME280;30517;51.932;4.278;2023-04-08T11:50:40;102612.03;;;12.70;62.87
37298;BME280;30517;51.932;4.278;2023-04-08T11:53:24;102585.34;;;12.58;63.23
37298;BME280;30517;51.932;4.278;2023-04-08T11:56:19;102638.84;;;12.89;63.38
37298;BME280;30517;51.932;4.278;2023-04-08T11:59:01;102630.00;;;12.90;62.97
37298;BME280;30517;51.932;4.278;2023-04-08T12:01:44;102596.19;;;12.73;62.86
37298;BME280;30517;51.932;4.278;2023-04-08T12:04:25;102623.97;;;12.97;63.07
37298;BME280;30517;51.932;4.278;2023-04-08T12:07:06;102635.56;;;13.05;62.96
37298;BME280;30517;51.932;4.278;2023-04-08T12:09:47;102622.28;;;13.02;62.74
37298;BME280;30517;51.932;4.278;2023-04-08T12:12:27;102592.00;;;12.88;62.79
37298;BME280;30517;51.932;4.278;2023-04-08T12:15:09;102641.09;;;13.20;62.64
37298;BME280;30517;51.932;4.278;2023-04-08T12:17:50;102617.16;;;13.14;62.66
37298;BME280;30517;51.932;4.278;2023-04-08T12:20:31;102611.00;;;13.15;63.11
37298;BME280;30517;51.932;4.278;2023-04-08T12:23:11;102614.59;;;13.20;62.75
37298;BME280;30517;51.932;4.278;2023-04-08T12:25:55;102620.03;;;13.26;62.32
37298;BME280;30517;51.932;4.278;2023-04-08T12:28:37;102623.66;;;13.32;62.79
37298;BME280;30517;51.932;4.278;2023-04-08T12:31:18;102613.09;;;13.35;63.00
37298;BME280;30517;51.932;4.278;2023-04-08T12:33:59;102632.75;;;13.50;62.78
37298;BME280;30517;51.932;4.278;2023-04-08T12:36:39;102607.91;;;13.44;62.34
37298;BME280;30517;51.932;4.278;2023-04-08T12:39:21;102626.66;;;13.58;62.51
37298;BME280;30517;51.932;4.278;2023-04-08T12:42:02;102631.16;;;13.63;62.36
37298;BME280;30517;51.932;4.278;2023-04-08T12:44:43;102628.56;;;13.68;62.53
37298;BME280;30517;51.932;4.278;2023-04-08T12:47:24;102626.88;;;13.73;62.17
37298;BME280;30517;51.932;4.278;2023-04-08T12:50:05;102605.50;;;13.62;62.80
37298;BME280;30517;51.932;4.278;2023-04-08T12:52:48;102613.69;;;13.78;62.18
37298;BME280;30517;51.932;4.278;2023-04-08T12:55:29;102612.91;;;13.86;62.52
37298;BME280;30517;51.932;4.278;2023-04-08T12:58:10;102591.56;;;13.79;62.45
37298;BME280;30517;51.932;4.278;2023-04-08T13:00:51;102618.38;;;14.00;62.08
37298;BME280;30517;51.932;4.278;2023-04-08T13:03:32;102600.63;;;13.94;62.23
37298;BME280;30517;51.932;4.278;2023-04-08T13:06:14;102605.19;;;14.09;62.11
37298;BME280;30517;51.932;4.278;2023-04-08T13:08:55;102602.59;;;14.12;61.98
37298;BME280;30517;51.932;4.278;2023-04-08T13:11:35;102610.66;;;14.22;61.89
37298;BME280;30517;51.932;4.278;2023-04-08T13:14:16;102609.91;;;14.35;62.19
37298;BME280;30517;51.932;4.278;2023-04-08T13:16:57;102598.31;;;14.28;61.90
37298;BME280;30517;51.932;4.278;2023-04-08T13:19:38;102605.59;;;14.46;62.08
37298;BME280;30517;51.932;4.278;2023-04-08T13:22:19;102604.69;;;14.43;62.01
37298;BME280;30517;51.932;4.278;2023-04-08T13:25:00;102614.56;;;14.56;61.91
37298;BME280;30517;51.932;4.278;2023-04-08T13:27:41;102609.25;;;14.57;61.89
37298;BME280;30517;51.932;4.278;2023-04-08T13:30:21;102596.91;;;14.59;62.07
37298;BME280;30517;51.932;4.278;2023-04-08T13:33:02;102600.50;;;14.68;61.57
37298;BME280;30517;51.932;4.278;2023-04-08T13:35:43;102605.06;;;14.82;61.12
37298;BME280;30517;51.932;4.278;2023-04-08T13:38:24;102589.13;;;14.84;61.39
37298;BME280;30517;51.932;4.278;2023-04-08T13:41:05;102584.75;;;14.89;61.03
37298;BME280;30517;51.932;4.278;2023-04-08T13:43:46;102603.44;;;15.00;60.90
37298;BME280;30517;51.932;4.278;2023-04-08T13:46:27;102615.06;;;15.19;60.82
37298;BME280;30517;51.932;4.278;2023-04-08T13:49:08;102582.25;;;15.14;60.60
37298;BME280;30517;51.932;4.278;2023-04-08T13:51:50;102592.09;;;15.27;60.77
37298;BME280;30517;51.932;4.278;2023-04-08T13:54:30;102582.38;;;15.35;60.75
37298;BME280;30517;51.932;4.278;2023-04-08T13:57:11;102606.41;;;15.47;60.75
37298;BME280;30517;51.932;4.278;2023-04-08T13:59:52;102602.00;;;15.57;60.18
37298;BME280;30517;51.932;4.278;2023-04-08T14:02:33;102585.13;;;15.55;60.34
37298;BME280;30517;51.932;4.278;2023-04-08T14:05:14;102574.50;;;15.55;61.03
37298;BME280;30517;51.932;4.278;2023-04-08T14:07:55;102601.25;;;15.81;60.07
37298;BME280;30517;51.932;4.278;2023-04-08T14:10:35;102563.03;;;15.64;60.76
37298;BME280;30517;51.932;4.278;2023-04-08T14:13:16;102562.19;;;15.71;60.52
37298;BME280;30517;51.932;4.278;2023-04-08T14:15:57;102591.59;;;15.99;60.70